createdAt,value
2022-11-05T00:00:35.283Z,99569.50
2022-11-05T00:03:27.840Z,99577.28
2022-11-05T00:06:13.191Z,99577.81
2022-11-05T00:08:59.943Z,99583.91
2022-11-05T00:11:45.779Z,99586.63
2022-11-05T00:14:31.701Z,99580.28
2022-11-05T00:16:58.397Z,99586.41
2022-11-05T00:19:25.399Z,99581.13
2022-11-05T00:22:11.013Z,99579.25
2022-11-05T00:24:56.331Z,99572.81
2022-11-05T00:27:23.046Z,99573.69
2022-11-05T00:29:50.043Z,99573.34
2022-11-05T00:32:16.770Z,99569.63
2022-11-05T00:34:43.780Z,99570.03
2022-11-05T00:37:10.513Z,99560.44
2022-11-05T00:39:37.646Z,99560.31
2022-11-05T00:42:23.232Z,99566.22
2022-11-05T00:45:00.843Z,99569.63
2022-11-05T00:47:46.345Z,99572.25
2022-11-05T00:50:13.775Z,99572.56
2022-11-05T00:52:55.898Z,99568.78
2022-11-05T00:55:28.345Z,99579.69
2022-11-05T00:57:56.309Z,99572.88
2022-11-05T01:00:25.846Z,99581.59
2022-11-05T01:02:52.772Z,99573.06
2022-11-05T01:05:19.896Z,99586.69
2022-11-05T01:07:46.649Z,99578.63
2022-11-05T01:10:13.772Z,99579.06
2022-11-05T01:12:40.538Z,99577.91
2022-11-05T01:15:08.085Z,99577.38
2022-11-05T01:17:34.836Z,99572.03
2022-11-05T01:20:01.976Z,99571.19
2022-11-05T01:22:28.705Z,99570.00
2022-11-05T01:24:55.699Z,99567.38
2022-11-05T01:27:22.550Z,99571.38
2022-11-05T01:29:49.559Z,99566.91
2022-11-05T01:32:16.322Z,99565.13
2022-11-05T01:34:43.360Z,99566.41
2022-11-05T01:37:10.135Z,99566.59
2022-11-05T01:39:37.183Z,99566.53
2022-11-05T01:42:05.717Z,99571.47
2022-11-05T01:44:54.646Z,99574.09
2022-11-05T01:47:41.388Z,99573.47
2022-11-05T01:50:30.229Z,99586.50
2022-11-05T01:53:07.824Z,99587.72
2022-11-05T01:55:38.542Z,99585.84
2022-11-05T01:58:07.728Z,99595.88
2022-11-05T02:00:35.326Z,99601.34
2022-11-05T02:03:02.582Z,99614.47
2022-11-05T02:05:30.215Z,99611.09
2022-11-05T02:07:57.053Z,99605.38
2022-11-05T02:10:24.129Z,99604.16
2022-11-05T02:12:50.930Z,99595.13
2022-11-05T02:15:27.110Z,99598.81
2022-11-05T02:18:05.357Z,99603.13
2022-11-05T02:20:52.024Z,99595.91
2022-11-05T02:23:54.239Z,99601.09
2022-11-05T02:26:39.873Z,99600.50
2022-11-05T02:29:15.403Z,99607.56
2022-11-05T02:32:09.048Z,99603.97
2022-11-05T02:35:02.692Z,99604.94
2022-11-05T02:37:41.476Z,99606.41
2022-11-05T02:40:20.758Z,99602.47
2022-11-05T02:43:18.936Z,99598.84
2022-11-05T02:46:30.416Z,99602.78
2022-11-05T02:49:26.479Z,99607.34
2022-11-05T02:52:03.287Z,99614.28
2022-11-05T02:54:39.806Z,99616.28
2022-11-05T02:57:07.179Z,99619.16
2022-11-05T02:59:34.227Z,99620.22
2022-11-05T03:02:03.466Z,99614.66
2022-11-05T03:04:32.264Z,99611.38
2022-11-05T03:07:25.013Z,99624.69
2022-11-05T03:09:52.043Z,99627.25
2022-11-05T03:12:39.974Z,99619.06
2022-11-05T03:15:35.657Z,99617.13
2022-11-05T03:18:09.734Z,99623.31
2022-11-05T03:20:51.690Z,99627.78
2022-11-05T03:23:36.474Z,99627.16
2022-11-05T03:26:03.397Z,99629.03
2022-11-05T03:28:34.717Z,99622.75
2022-11-05T03:31:03.700Z,99637.75
2022-11-05T03:33:34.050Z,99632.03
2022-11-05T03:36:07.332Z,99642.69
2022-11-05T03:38:37.585Z,99632.78
2022-11-05T03:41:10.112Z,99653.13
2022-11-05T03:43:42.798Z,99651.91
2022-11-05T03:46:15.658Z,99660.06
2022-11-05T03:48:47.350Z,99663.34
2022-11-05T03:51:18.924Z,99658.19
2022-11-05T03:53:51.938Z,99661.38
2022-11-05T03:56:27.850Z,99657.97
2022-11-05T03:58:58.955Z,99661.19
2022-11-05T04:01:27.470Z,99656.63
2022-11-05T04:03:54.355Z,99666.66
2022-11-05T04:06:39.846Z,99675.63
2022-11-05T04:09:25.239Z,99663.53
2022-11-05T04:12:11.052Z,99654.94
2022-11-05T04:14:39.428Z,99640.53
2022-11-05T04:17:11.847Z,99650.69
2022-11-05T04:20:04.059Z,99644.78
2022-11-05T04:22:52.526Z,99633.59
2022-11-05T04:25:20.814Z,99640.63
2022-11-05T04:27:48.264Z,99651.50
2022-11-05T04:30:19.662Z,99651.34
2022-11-05T04:33:00.646Z,99648.97
2022-11-05T04:35:33.334Z,99643.63
2022-11-05T04:38:00.543Z,99634.75
2022-11-05T04:40:28.110Z,99631.25
2022-11-05T04:42:56.343Z,99634.75
2022-11-05T04:45:25.071Z,99636.13
2022-11-05T04:47:52.114Z,99634.25
2022-11-05T04:50:18.938Z,99631.81
2022-11-05T04:52:45.974Z,99637.63
2022-11-05T04:55:13.074Z,99639.31
2022-11-05T04:57:40.301Z,99640.53
2022-11-05T05:00:08.164Z,99639.31
2022-11-05T05:02:38.206Z,99644.66
2022-11-05T05:05:05.635Z,99652.53
2022-11-05T05:07:33.922Z,99663.50
2022-11-05T05:10:01.635Z,99658.72
2022-11-05T05:12:28.662Z,99665.00
2022-11-05T05:14:55.433Z,99653.13
2022-11-05T05:17:23.106Z,99664.16
2022-11-05T05:20:08.672Z,99661.44
2022-11-05T05:22:35.869Z,99653.06
2022-11-05T05:25:02.966Z,99656.25
2022-11-05T05:27:30.515Z,99654.38
2022-11-05T05:29:58.381Z,99654.19
2022-11-05T05:32:26.652Z,99655.88
2022-11-05T05:34:53.479Z,99660.88
2022-11-05T05:37:20.551Z,99656.25
2022-11-05T05:39:48.514Z,99664.50
2022-11-05T05:42:15.786Z,99668.56
2022-11-05T05:44:42.626Z,99671.44
2022-11-05T05:47:09.613Z,99683.06
2022-11-05T05:49:36.364Z,99674.53
2022-11-05T05:52:03.896Z,99680.81
2022-11-05T05:54:32.895Z,99677.59
2022-11-05T05:57:02.776Z,99687.09
2022-11-05T05:59:29.531Z,99692.25
2022-11-05T06:01:56.623Z,99704.44
2022-11-05T06:04:23.636Z,99713.13
2022-11-05T06:06:50.712Z,99717.81
2022-11-05T06:09:17.515Z,99709.03
2022-11-05T06:11:44.582Z,99715.47
2022-11-05T06:14:12.620Z,99718.66
2022-11-05T06:16:40.742Z,99721.50
2022-11-05T06:19:07.787Z,99732.09
2022-11-05T06:21:34.991Z,99738.09
2022-11-05T06:24:02.865Z,99735.56
2022-11-05T06:26:30.498Z,99741.31
2022-11-05T06:28:57.300Z,99740.47
2022-11-05T06:31:24.885Z,99738.59
2022-11-05T06:33:51.644Z,99746.66
2022-11-05T06:36:20.253Z,99757.16
2022-11-05T06:38:47.223Z,99760.78
2022-11-05T06:41:14.468Z,99745.44
2022-11-05T06:43:41.542Z,99750.69
2022-11-05T06:46:10.412Z,99764.59
2022-11-05T06:48:38.091Z,99766.19
2022-11-05T06:51:08.239Z,99759.44
2022-11-05T06:53:35.773Z,99768.06
2022-11-05T06:56:07.513Z,99766.19
2022-11-05T06:58:34.643Z,99764.25
2022-11-05T07:01:08.490Z,99770.00
2022-11-05T07:03:36.456Z,99772.69
2022-11-05T07:06:05.332Z,99763.78
2022-11-05T07:08:36.184Z,99757.41
2022-11-05T07:11:04.175Z,99768.75
2022-11-05T07:13:30.984Z,99769.19
2022-11-05T07:15:59.272Z,99754.66
2022-11-05T07:18:26.039Z,99764.31
2022-11-05T07:20:53.125Z,99770.31
2022-11-05T07:23:19.855Z,99771.06
2022-11-05T07:25:46.929Z,99766.75
2022-11-05T07:28:14.604Z,99766.38
2022-11-05T07:30:41.712Z,99767.59
2022-11-05T07:33:09.507Z,99779.97
2022-11-05T07:35:36.930Z,99775.03
2022-11-05T07:38:03.750Z,99769.22
2022-11-05T07:40:30.836Z,99764.72
2022-11-05T07:42:59.691Z,99770.44
2022-11-05T07:45:29.249Z,99769.97
2022-11-05T07:47:58.939Z,99777.84
2022-11-05T07:50:28.811Z,99774.75
2022-11-05T07:53:02.304Z,99772.13
2022-11-05T07:55:29.530Z,99760.88
2022-11-05T07:57:56.351Z,99777.88
2022-11-05T08:00:24.721Z,99774.19
2022-11-05T08:03:09.483Z,99772.63
2022-11-05T08:05:39.237Z,99761.06
2022-11-05T08:08:08.611Z,99761.44
2022-11-05T08:10:36.514Z,99772.47
2022-11-05T08:13:03.869Z,99763.72
2022-11-05T08:15:31.364Z,99768.91
2022-11-05T08:18:07.101Z,99763.66
2022-11-05T08:20:35.286Z,99752.94
2022-11-05T08:23:02.092Z,99758.09
2022-11-05T08:25:29.434Z,99749.47
2022-11-05T08:27:57.876Z,99756.63
2022-11-05T08:30:25.626Z,99753.03
2022-11-05T08:32:57.250Z,99741.78
2022-11-05T08:35:24.664Z,99740.75
2022-11-05T08:37:51.431Z,99753.97
2022-11-05T08:40:18.415Z,99750.69
2022-11-05T08:42:45.234Z,99757.06
2022-11-05T08:45:12.390Z,99756.13
2022-11-05T08:47:39.106Z,99753.47
2022-11-05T08:50:06.537Z,99755.16
2022-11-05T08:52:33.300Z,99750.75
2022-11-05T08:55:00.314Z,99760.03
2022-11-05T08:57:27.430Z,99755.81
2022-11-05T08:59:54.435Z,99752.41
2022-11-05T09:02:21.276Z,99765.09
2022-11-05T09:04:48.356Z,99765.16
2022-11-05T09:07:15.224Z,99769.34
2022-11-05T09:09:42.250Z,99776.56
2022-11-05T09:12:13.100Z,99778.25
2022-11-05T09:14:40.290Z,99780.50
2022-11-05T09:17:17.058Z,99793.75
2022-11-05T09:19:44.386Z,99789.16
2022-11-05T09:22:12.876Z,99794.78
2022-11-05T09:24:40.613Z,99794.75
2022-11-05T09:27:13.285Z,99801.69
2022-11-05T09:29:41.825Z,99801.16
2022-11-05T09:32:12.133Z,99795.19
2022-11-05T09:34:39.201Z,99805.47
2022-11-05T09:37:05.911Z,99805.88
2022-11-05T09:39:32.945Z,99799.13
2022-11-05T09:42:04.862Z,99807.09
2022-11-05T09:44:48.325Z,99797.13
2022-11-05T09:47:21.369Z,99795.69
2022-11-05T09:49:51.805Z,99803.63
2022-11-05T09:52:29.778Z,99798.50
2022-11-05T09:54:57.723Z,99796.88
2022-11-05T09:57:32.901Z,99786.75
2022-11-05T10:00:04.521Z,99800.97
2022-11-05T10:02:35.774Z,99792.13
2022-11-05T10:05:10.051Z,99797.56
2022-11-05T10:07:53.259Z,99800.53
2022-11-05T10:10:37.846Z,99800.53
2022-11-05T10:13:40.183Z,99794.44
2022-11-05T10:16:21.763Z,99790.31
2022-11-05T10:18:57.038Z,99799.19
2022-11-05T10:21:44.239Z,99789.59
2022-11-05T10:24:19.169Z,99795.59
2022-11-05T10:26:52.603Z,99794.75
2022-11-05T10:29:34.360Z,99795.47
2022-11-05T10:32:05.558Z,99807.81
2022-11-05T10:34:35.715Z,99797.56
2022-11-05T10:37:03.649Z,99801.59
2022-11-05T10:39:32.920Z,99799.28
2022-11-05T10:42:37.763Z,99804.53
2022-11-05T10:45:07.089Z,99797.56
2022-11-05T10:48:19.155Z,99795.47
2022-11-05T10:50:46.211Z,99805.78
2022-11-05T10:53:34.825Z,99803.28
2022-11-05T10:56:01.706Z,99800.94
2022-11-05T10:58:31.207Z,99801.16
2022-11-05T11:00:57.932Z,99811.59
2022-11-05T11:03:33.812Z,99810.50
2022-11-05T11:06:04.142Z,99805.38
2022-11-05T11:08:35.419Z,99821.16
2022-11-05T11:11:05.971Z,99814.47
2022-11-05T11:13:51.995Z,99817.03
2022-11-05T11:16:24.602Z,99833.72
2022-11-05T11:18:56.308Z,99833.53
2022-11-05T11:21:23.705Z,99837.00
2022-11-05T11:24:28.504Z,99820.72
2022-11-05T11:27:09.598Z,99820.31
2022-11-05T11:29:41.984Z,99816.84
2022-11-05T11:32:15.939Z,99816.66
2022-11-05T11:34:45.251Z,99823.06
2022-11-05T11:37:35.682Z,99829.16
2022-11-05T11:40:19.486Z,99814.94
2022-11-05T11:42:48.169Z,99819.97
2022-11-05T11:45:25.612Z,99818.25
2022-11-05T11:47:54.769Z,99823.44
2022-11-05T11:50:33.672Z,99831.56
2022-11-05T11:53:25.914Z,99823.03
2022-11-05T11:55:55.312Z,99820.53
2022-11-05T11:58:36.139Z,99815.63
2022-11-05T12:01:07.010Z,99812.59
2022-11-05T12:04:09.549Z,99813.56
2022-11-05T12:06:56.798Z,99819.38
2022-11-05T12:09:42.338Z,99821.97
2022-11-05T12:12:14.378Z,99816.03
2022-11-05T12:14:46.636Z,99814.94
2022-11-05T12:17:50.515Z,99825.19
2022-11-05T12:20:40.798Z,99814.53
2022-11-05T12:23:31.919Z,99823.47
2022-11-05T12:26:04.967Z,99830.84
2022-11-05T12:29:12.095Z,99844.00
2022-11-05T12:31:51.848Z,99839.44
2022-11-05T12:35:03.428Z,99848.78
2022-11-05T12:37:41.869Z,99853.09
2022-11-05T12:40:33.321Z,99837.28
2022-11-05T12:43:12.434Z,99843.13
2022-11-05T12:45:57.677Z,99843.69
2022-11-05T12:48:40.893Z,99845.75
2022-11-05T12:51:19.401Z,99850.97
2022-11-05T12:54:04.637Z,99862.81
2022-11-05T12:56:45.805Z,99868.72
2022-11-05T12:59:37.421Z,99864.06
2022-11-05T13:02:13.800Z,99872.66
2022-11-05T13:04:47.070Z,99875.41
2022-11-05T13:07:19.666Z,99876.25
2022-11-05T13:09:52.133Z,99874.03
2022-11-05T13:12:22.804Z,99878.44
2022-11-05T13:15:27.199Z,99881.00
2022-11-05T13:17:58.478Z,99883.00
2022-11-05T13:20:39.291Z,99886.72
2022-11-05T13:23:19.215Z,99877.59
2022-11-05T13:26:22.760Z,99877.28
2022-11-05T13:29:11.455Z,99878.38
2022-11-05T13:31:49.479Z,99881.34
2022-11-05T13:34:16.195Z,99883.75
2022-11-05T13:37:15.233Z,99873.72
2022-11-05T13:39:48.267Z,99882.22
2022-11-05T13:42:59.782Z,99883.88
2022-11-05T13:45:51.252Z,99888.34
2022-11-05T13:48:37.446Z,99884.72
2022-11-05T13:51:19.572Z,99879.69
2022-11-05T13:54:05.340Z,99889.28
2022-11-05T13:56:48.842Z,99896.25
2022-11-05T13:59:45.287Z,99905.28
2022-11-05T14:02:20.160Z,99904.84
2022-11-05T14:05:01.044Z,99897.88
2022-11-05T14:07:32.425Z,99906.00
2022-11-05T14:10:28.390Z,99901.81
2022-11-05T14:12:57.541Z,99905.22
2022-11-05T14:15:29.655Z,99912.72
2022-11-05T14:18:03.816Z,99909.13
2022-11-05T14:20:30.794Z,99911.00
2022-11-05T14:23:25.244Z,99913.44
2022-11-05T14:25:56.891Z,99915.97
2022-11-05T14:28:35.545Z,99918.94
2022-11-05T14:31:07.467Z,99914.28
2022-11-05T14:33:40.168Z,99929.28
2022-11-05T14:36:22.242Z,99926.84
2022-11-05T14:38:51.509Z,99938.19
2022-11-05T14:41:19.544Z,99933.75
2022-11-05T14:44:12.635Z,99937.88
2022-11-05T14:46:46.909Z,99936.91
2022-11-05T14:49:21.181Z,99934.59
2022-11-05T14:51:51.389Z,99939.25
2022-11-05T14:54:26.952Z,99950.44
2022-11-05T14:56:59.578Z,99940.50
2022-11-05T14:59:31.382Z,99949.88
2022-11-05T15:02:03.864Z,99945.56
2022-11-05T15:04:40.463Z,99947.16
2022-11-05T15:07:07.385Z,99949.69
2022-11-05T15:09:38.194Z,99946.00
2022-11-05T15:12:16.673Z,99950.66
2022-11-05T15:15:01.593Z,99944.09
2022-11-05T15:17:37.428Z,99949.56
2022-11-05T15:20:07.503Z,99959.59
2022-11-05T15:22:42.261Z,99955.28
2022-11-05T15:25:53.845Z,99955.50
2022-11-05T15:28:39.842Z,99960.69
2022-11-05T15:31:21.037Z,99969.97
2022-11-05T15:33:48.264Z,99965.31
2022-11-05T15:36:30.473Z,99965.94
2022-11-05T15:41:46.857Z,99974.28
2022-11-05T15:44:44.204Z,99977.16
2022-11-05T15:47:16.793Z,99981.38
2022-11-05T15:49:47.631Z,99974.19
2022-11-05T15:52:17.167Z,99986.66
2022-11-05T15:54:44.521Z,99982.00
2022-11-05T15:57:28.454Z,99987.47
2022-11-05T15:59:55.335Z,99987.38
2022-11-05T16:02:30.914Z,99990.75
2022-11-05T16:04:59.169Z,99992.22
2022-11-05T16:07:27.591Z,99993.16
2022-11-05T16:09:57.962Z,99994.00
2022-11-05T16:12:31.162Z,99996.88
2022-11-05T16:14:58.086Z,100007.94
2022-11-05T16:17:28.008Z,100003.72
2022-11-05T16:19:55.074Z,100008.34
2022-11-05T16:22:22.386Z,100009.38
2022-11-05T16:24:49.676Z,100014.47
2022-11-05T16:27:22.095Z,100016.69
2022-11-05T16:29:57.441Z,100019.50
2022-11-05T16:32:31.425Z,100020.91
2022-11-05T16:35:01.821Z,100025.72
2022-11-05T16:37:35.653Z,100023.41
2022-11-05T16:40:16.418Z,100025.22
2022-11-05T16:42:43.664Z,100022.97
2022-11-05T16:45:13.670Z,100035.59
2022-11-05T16:47:40.768Z,100040.31
2022-11-05T16:50:18.745Z,100032.31
2022-11-05T16:52:46.518Z,100042.78
2022-11-05T16:55:15.210Z,100040.22
2022-11-05T16:57:44.108Z,100046.22
2022-11-05T17:00:15.342Z,100054.59
2022-11-05T17:02:42.977Z,100057.53
2022-11-05T17:05:19.205Z,100058.59
2022-11-05T17:07:47.034Z,100063.06
2022-11-05T17:10:14.598Z,100067.91
2022-11-05T17:12:42.218Z,100073.44
2022-11-05T17:15:28.273Z,100072.69
2022-11-05T17:17:55.549Z,100075.81
2022-11-05T17:20:40.867Z,100069.59
2022-11-05T17:23:16.461Z,100071.84
2022-11-05T17:25:47.823Z,100079.47
2022-11-05T17:28:16.580Z,100078.53
2022-11-05T17:30:49.259Z,100079.94
2022-11-05T17:33:19.561Z,100084.66
2022-11-05T17:35:46.675Z,100090.97
2022-11-05T17:38:13.544Z,100086.06
2022-11-05T17:40:41.199Z,100086.63
2022-11-05T17:43:08.531Z,100094.66
2022-11-05T17:45:41.707Z,100094.81
2022-11-05T17:48:09.378Z,100093.97
2022-11-05T17:50:41.243Z,100101.97
2022-11-05T17:53:08.147Z,100097.34
2022-11-05T17:55:35.233Z,100102.63
2022-11-05T17:58:01.971Z,100105.25
2022-11-05T18:00:29.089Z,100101.22
2022-11-05T18:02:55.844Z,100095.56
2022-11-05T18:05:24.122Z,100108.94
2022-11-05T18:07:51.362Z,100105.59
2022-11-05T18:10:18.422Z,100114.34
2022-11-05T18:12:45.823Z,100113.13
2022-11-05T18:15:14.266Z,100115.84
2022-11-05T18:17:41.860Z,100117.44
2022-11-05T18:20:15.760Z,100116.59
2022-11-05T18:22:46.078Z,100117.75
2022-11-05T18:25:14.023Z,100127.25
2022-11-05T18:27:40.897Z,100129.38
2022-11-05T18:30:09.762Z,100127.34
2022-11-05T18:32:36.903Z,100137.78
2022-11-05T18:35:04.427Z,100136.19
2022-11-05T18:37:31.290Z,100144.06
2022-11-05T18:39:58.348Z,100144.56
2022-11-05T18:42:25.458Z,100155.81
2022-11-05T18:44:52.529Z,100158.19
2022-11-05T18:47:19.341Z,100157.16
2022-11-05T18:49:46.344Z,100170.31
2022-11-05T18:52:13.255Z,100168.44
2022-11-05T18:54:40.284Z,100178.41
2022-11-05T18:57:07.109Z,100177.28
2022-11-05T18:59:38.063Z,100174.47
2022-11-05T19:02:08.175Z,100174.06
2022-11-05T19:04:38.591Z,100177.03
2022-11-05T19:07:06.602Z,100177.81
2022-11-05T19:09:38.073Z,100193.53
2022-11-05T19:12:06.390Z,100192.41
2022-11-05T19:14:34.849Z,100192.78
2022-11-05T19:17:02.208Z,100200.31
2022-11-05T19:19:29.240Z,100197.75
2022-11-05T19:21:56.567Z,100206.44
2022-11-05T19:24:23.673Z,100200.31
2022-11-05T19:26:50.554Z,100203.59
2022-11-05T19:29:18.315Z,100203.50
2022-11-05T19:31:45.281Z,100207.84
2022-11-05T19:34:13.535Z,100213.78
2022-11-05T19:36:41.552Z,100216.63
2022-11-05T19:39:12.051Z,100221.44
2022-11-05T19:41:38.893Z,100223.59
2022-11-05T19:44:06.389Z,100222.28
2022-11-05T19:46:33.601Z,100226.66
2022-11-05T19:49:01.357Z,100236.50
2022-11-05T19:51:30.809Z,100229.28
2022-11-05T19:53:59.907Z,100235.06
2022-11-05T19:56:30.275Z,100241.59
2022-11-05T19:58:57.668Z,100246.59
2022-11-05T20:01:26.496Z,100243.97
2022-11-05T20:03:55.238Z,100253.84
2022-11-05T20:06:28.578Z,100256.38
2022-11-05T20:11:48.760Z,100267.75
2022-11-05T20:14:15.864Z,100264.28
2022-11-05T20:16:42.871Z,100261.63
2022-11-05T20:19:14.010Z,100271.03
2022-11-05T20:21:41.669Z,100270.13
2022-11-05T20:24:11.453Z,100275.22
2022-11-05T20:26:38.960Z,100268.25
2022-11-05T20:29:06.187Z,100276.06
2022-11-05T20:31:33.715Z,100274.97
2022-11-05T20:34:00.879Z,100279.63
2022-11-05T20:36:27.634Z,100282.00
2022-11-05T20:38:58.148Z,100282.72
2022-11-05T20:41:26.351Z,100281.84
2022-11-05T20:43:53.972Z,100289.47
2022-11-05T20:46:22.131Z,100295.13
2022-11-05T20:48:49.593Z,100285.44
2022-11-05T20:51:19.451Z,100293.25
2022-11-05T20:53:47.319Z,100291.53
2022-11-05T20:56:26.134Z,100296.31
2022-11-05T20:58:53.778Z,100297.75
2022-11-05T21:01:20.853Z,100297.66
2022-11-05T21:03:48.279Z,100307.59
2022-11-05T21:06:15.728Z,100295.78
2022-11-05T21:08:43.438Z,100303.19
2022-11-05T21:11:11.098Z,100310.13
2022-11-05T21:13:39.045Z,100308.28
2022-11-05T21:16:07.594Z,100311.91
2022-11-05T21:18:37.319Z,100310.06
2022-11-05T21:21:09.910Z,100314.66
2022-11-05T21:23:37.001Z,100312.75
2022-11-05T21:26:05.742Z,100311.59
2022-11-05T21:28:33.897Z,100315.41
2022-11-05T21:31:04.979Z,100310.06
2022-11-05T21:33:33.417Z,100309.28
2022-11-05T21:36:09.282Z,100319.47
2022-11-05T21:38:36.952Z,100316.84
2022-11-05T21:41:04.312Z,100310.81
2022-11-05T21:43:31.417Z,100312.44
2022-11-05T21:46:01.749Z,100312.44
2022-11-05T21:48:28.825Z,100311.81
2022-11-05T21:51:14.070Z,100318.28
2022-11-05T21:54:00.137Z,100315.81
2022-11-05T21:56:45.750Z,100313.88
2022-11-05T21:59:34.021Z,100322.97
2022-11-05T22:02:03.781Z,100321.97
2022-11-05T22:04:33.234Z,100320.59
2022-11-05T22:06:59.994Z,100320.41
2022-11-05T22:09:27.756Z,100320.59
2022-11-05T22:11:55.178Z,100325.94
2022-11-05T22:14:24.130Z,100323.25
2022-11-05T22:16:51.014Z,100322.88
2022-11-05T22:19:18.842Z,100322.38
2022-11-05T22:21:45.910Z,100322.22
2022-11-05T22:24:13.001Z,100321.44
2022-11-05T22:26:40.493Z,100330.09
2022-11-05T22:29:07.935Z,100327.72
2022-11-05T22:31:36.563Z,100328.22
2022-11-05T22:34:05.966Z,100327.28
2022-11-05T22:36:34.014Z,100324.75
2022-11-05T22:39:01.420Z,100330.25
2022-11-05T22:41:28.298Z,100331.81
2022-11-05T22:43:55.815Z,100331.81
2022-11-05T22:46:24.839Z,100328.81
2022-11-05T22:48:52.692Z,100326.72
2022-11-05T22:51:22.462Z,100329.59
2022-11-05T22:53:50.111Z,100328.56
2022-11-05T22:56:19.642Z,100327.06
2022-11-05T22:58:47.510Z,100329.84
2022-11-05T23:01:15.762Z,100333.94
2022-11-05T23:03:44.387Z,100334.03
2022-11-05T23:06:36.957Z,100329.69
2022-11-05T23:09:44.351Z,100334.97
2022-11-05T23:12:32.837Z,100338.44
2022-11-05T23:15:01.912Z,100330.44
2022-11-05T23:17:47.647Z,100339.28
2022-11-05T23:20:36.456Z,100336.47
2022-11-05T23:23:22.243Z,100343.19
2022-11-05T23:25:49.278Z,100345.41
2022-11-05T23:28:21.221Z,100338.25
2022-11-05T23:31:06.883Z,100353.06
2022-11-05T23:33:34.817Z,100353.06
2022-11-05T23:36:20.914Z,100352.34
2022-11-05T23:38:47.665Z,100351.19
2022-11-05T23:41:33.607Z,100357.19
2022-11-05T23:44:18.810Z,100355.41
2022-11-05T23:47:04.562Z,100362.66
2022-11-05T23:49:31.326Z,100352.69
2022-11-05T23:51:58.370Z,100357.47
2022-11-05T23:54:25.132Z,100354.06
2022-11-05T23:56:52.122Z,100349.81
2022-11-05T23:59:19.925Z,100351.94
